Time;durP1;ratioP1;P1;durP2;ratioP2;P2;SDS_P1;SDS_P2;PMS_P1;PMS_P2;Temp;Humidity;BMP_temperature;BMP_pressure;BME280_temperature;BME280_humidity;BME280_pressure;Samples;Min_cycle;Max_cycle;Signal;HPM_P1;HPM_P2
2021/09/29 00:02:52;;;;;;;2.88;1.80;;;;;;;19.87;70.35;100644.73;;;;-51
2021/09/29 00:05:52;;;;;;;2.37;1.84;;;;;;;19.88;70.35;100642.20;;;;-50
2021/09/29 00:08:51;;;;;;;3.46;1.80;;;;;;;19.87;70.34;100641.64;;;;-51
2021/09/29 00:11:52;;;;;;;1.89;1.71;;;;;;;19.86;70.36;100635.52;;;;-51
2021/09/29 00:14:51;;;;;;;2.51;1.70;;;;;;;19.85;70.34;100633.48;;;;-51
2021/09/29 00:17:52;;;;;;;1.75;1.65;;;;;;;19.86;70.36;100636.01;;;;-51
2021/09/29 00:20:52;;;;;;;2.09;1.87;;;;;;;19.85;70.34;100630.56;;;;-50
2021/09/29 00:23:51;;;;;;;1.71;1.61;;;;;;;19.85;70.33;100623.24;;;;-50
2021/09/29 00:26:51;;;;;;;2.17;1.60;;;;;;;19.84;70.37;100623.25;;;;-51
2021/09/29 00:29:54;;;;;;;1.96;1.71;;;;;;;19.84;70.37;100622.36;;;;-51
2021/09/29 00:32:52;;;;;;;1.83;1.64;;;;;;;19.85;70.39;100627.39;;;;-51
2021/09/29 00:35:51;;;;;;;2.17;1.61;;;;;;;19.84;70.33;100624.55;;;;-51
2021/09/29 00:38:52;;;;;;;1.75;1.65;;;;;;;19.84;70.36;100627.80;;;;-51
2021/09/29 00:41:51;;;;;;;1.81;1.71;;;;;;;19.83;70.39;100625.27;;;;-51
2021/09/29 00:44:52;;;;;;;2.11;1.70;;;;;;;19.83;70.39;100629.73;;;;-50
2021/09/29 00:47:51;;;;;;;1.64;1.54;;;;;;;19.83;70.40;100633.88;;;;-51
2021/09/29 00:50:52;;;;;;;2.48;1.83;;;;;;;19.83;70.37;100631.93;;;;-51
2021/09/29 00:53:52;;;;;;;2.24;1.67;;;;;;;19.83;70.36;100628.44;;;;-50
2021/09/29 00:56:51;;;;;;;2.74;1.57;;;;;;;19.83;70.34;100624.45;;;;-51
2021/09/29 00:59:51;;;;;;;1.85;1.69;;;;;;;19.82;70.40;100622.42;;;;-47
2021/09/29 01:02:51;;;;;;;1.90;1.66;;;;;;;19.82;70.39;100619.25;;;;-47
2021/09/29 01:05:51;;;;;;;2.47;1.54;;;;;;;19.81;70.37;100621.50;;;;-50
2021/09/29 01:08:51;;;;;;;2.07;1.79;;;;;;;19.82;70.39;100618.52;;;;-50
2021/09/29 01:11:51;;;;;;;1.63;1.53;;;;;;;19.82;70.39;100616.57;;;;-50
2021/09/29 01:14:51;;;;;;;2.40;1.74;;;;;;;19.81;70.37;100617.60;;;;-51
2021/09/29 01:17:52;;;;;;;2.01;1.79;;;;;;;19.81;70.37;100625.41;;;;-51
2021/09/29 01:20:51;;;;;;;2.43;1.60;;;;;;;19.81;70.38;100619.06;;;;-57
2021/09/29 01:23:51;;;;;;;2.01;1.60;;;;;;;19.80;70.40;100617.61;;;;-51
2021/09/29 01:26:51;;;;;;;2.01;1.77;;;;;;;19.80;70.36;100617.69;;;;-51
2021/09/29 01:29:51;;;;;;;2.03;1.63;;;;;;;19.80;70.41;100618.42;;;;-51
2021/09/29 01:32:51;;;;;;;1.81;1.67;;;;;;;19.80;70.36;100617.36;;;;-50
2021/09/29 01:35:51;;;;;;;1.65;1.55;;;;;;;19.79;70.42;100614.17;;;;-47
2021/09/29 01:38:54;;;;;;;2.23;1.68;;;;;;;19.79;70.40;100603.92;;;;-47
2021/09/29 01:41:51;;;;;;;1.61;1.51;;;;;;;19.79;70.37;100606.94;;;;-51
2021/09/29 01:44:51;;;;;;;1.85;1.55;;;;;;;19.79;70.43;100613.93;;;;-47
2021/09/29 01:47:51;;;;;;;1.65;1.55;;;;;;;19.78;70.38;100616.61;;;;-57
2021/09/29 01:50:51;;;;;;;1.91;1.69;;;;;;;19.79;70.33;100618.81;;;;-57
2021/09/29 01:53:51;;;;;;;1.87;1.50;;;;;;;19.79;70.37;100615.80;;;;-57
2021/09/29 01:56:51;;;;;;;1.94;1.60;;;;;;;19.78;70.36;100612.39;;;;-48
2021/09/29 01:59:52;;;;;;;1.92;1.75;;;;;;;19.78;70.38;100607.11;;;;-47
2021/09/29 02:02:55;;;;;;;1.70;1.60;;;;;;;19.78;70.43;100605.80;;;;-51
2021/09/29 02:05:52;;;;;;;1.71;1.61;;;;;;;19.78;70.43;100611.50;;;;-50
2021/09/29 02:08:51;;;;;;;1.72;1.62;;;;;;;19.77;70.38;100613.98;;;;-57
2021/09/29 02:11:51;;;;;;;1.61;1.51;;;;;;;19.77;70.44;100621.96;;;;-57
2021/09/29 02:14:51;;;;;;;2.16;1.65;;;;;;;19.77;70.40;100627.25;;;;-47
2021/09/29 02:17:52;;;;;;;1.63;1.51;;;;;;;19.77;70.40;100629.84;;;;-51
2021/09/29 02:20:52;;;;;;;2.07;1.60;;;;;;;19.77;70.44;100625.70;;;;-51
2021/09/29 02:23:51;;;;;;;1.61;1.51;;;;;;;19.77;70.41;100629.20;;;;-51
2021/09/29 02:26:51;;;;;;;2.73;1.63;;;;;;;19.76;70.43;100635.62;;;;-51
2021/09/29 02:29:51;;;;;;;2.06;1.70;;;;;;;19.76;70.41;100627.34;;;;-57
2021/09/29 02:32:52;;;;;;;1.87;1.60;;;;;;;19.76;70.40;100626.77;;;;-57
2021/09/29 02:35:51;;;;;;;1.70;1.60;;;;;;;19.75;70.43;100624.05;;;;-47
2021/09/29 02:38:51;;;;;;;1.75;1.59;;;;;;;19.76;70.40;100626.61;;;;-56
2021/09/29 02:41:51;;;;;;;1.67;1.57;;;;;;;19.75;70.40;100628.28;;;;-57
2021/09/29 02:44:52;;;;;;;1.62;1.52;;;;;;;19.75;70.38;100630.65;;;;-50
2021/09/29 02:47:51;;;;;;;1.70;1.60;;;;;;;19.75;70.42;100630.89;;;;-51
2021/09/29 02:50:52;;;;;;;1.63;1.53;;;;;;;19.75;70.40;100635.36;;;;-57
2021/09/29 02:53:52;;;;;;;1.70;1.60;;;;;;;19.75;70.43;100637.23;;;;-56
2021/09/29 02:56:51;;;;;;;1.66;1.56;;;;;;;19.75;70.41;100638.30;;;;-47
2021/09/29 02:59:52;;;;;;;1.79;1.57;;;;;;;19.74;70.44;100638.05;;;;-56
2021/09/29 03:02:51;;;;;;;1.83;1.49;;;;;;;19.74;70.43;100649.68;;;;-57
2021/09/29 03:05:51;;;;;;;1.77;1.63;;;;;;;19.74;70.44;100646.34;;;;-47
2021/09/29 03:08:51;;;;;;;1.55;1.45;;;;;;;19.73;70.45;100657.63;;;;-47
2021/09/29 03:11:51;;;;;;;1.60;1.50;;;;;;;19.73;70.50;100660.95;;;;-48
2021/09/29 03:14:51;;;;;;;1.60;1.50;;;;;;;19.73;70.44;100661.12;;;;-51
2021/09/29 03:17:51;;;;;;;1.70;1.60;;;;;;;19.73;70.48;100662.42;;;;-51
2021/09/29 03:20:51;;;;;;;1.70;1.60;;;;;;;19.73;70.45;100661.61;;;;-51
2021/09/29 03:23:51;;;;;;;1.63;1.53;;;;;;;19.73;70.46;100663.31;;;;-51
2021/09/29 03:26:52;;;;;;;1.86;1.72;;;;;;;19.73;70.45;100663.89;;;;-50
2021/09/29 03:29:51;;;;;;;1.60;1.50;;;;;;;19.73;70.45;100666.56;;;;-51
2021/09/29 03:32:51;;;;;;;1.71;1.61;;;;;;;19.73;70.45;100670.47;;;;-51
2021/09/29 03:35:52;;;;;;;1.69;1.59;;;;;;;19.72;70.48;100665.92;;;;-51
2021/09/29 03:38:51;;;;;;;2.31;1.55;;;;;;;19.72;70.46;100671.62;;;;-51
2021/09/29 03:41:51;;;;;;;1.70;1.60;;;;;;;19.72;70.46;100675.52;;;;-57
2021/09/29 03:44:51;;;;;;;1.61;1.51;;;;;;;19.72;70.45;100680.41;;;;-57
2021/09/29 03:47:51;;;;;;;1.70;1.60;;;;;;;19.72;70.46;100683.33;;;;-57
2021/09/29 03:50:51;;;;;;;1.76;1.66;;;;;;;19.72;70.40;100677.80;;;;-57
2021/09/29 03:53:51;;;;;;;2.31;1.48;;;;;;;19.71;70.45;100680.78;;;;-57
2021/09/29 03:56:52;;;;;;;1.87;1.71;;;;;;;19.72;70.44;100681.78;;;;-56
2021/09/29 03:59:51;;;;;;;1.70;1.60;;;;;;;19.71;70.47;100686.31;;;;-57
2021/09/29 04:02:51;;;;;;;1.81;1.71;;;;;;;19.71;70.41;100687.94;;;;-57
2021/09/29 04:05:51;;;;;;;1.60;1.50;;;;;;;19.71;70.40;100686.72;;;;-51
2021/09/29 04:08:51;;;;;;;2.53;1.81;;;;;;;19.70;70.43;100682.58;;;;-51
2021/09/29 04:11:52;;;;;;;1.70;1.59;;;;;;;19.70;70.46;100682.58;;;;-51
2021/09/29 04:14:52;;;;;;;1.71;1.61;;;;;;;19.70;70.42;100679.78;;;;-51
2021/09/29 04:17:51;;;;;;;1.97;1.77;;;;;;;19.70;70.46;100679.21;;;;-51
2021/09/29 04:20:51;;;;;;;1.79;1.69;;;;;;;19.69;70.48;100681.54;;;;-51
2021/09/29 04:23:51;;;;;;;1.65;1.55;;;;;;;19.69;70.42;100677.59;;;;-51
2021/09/29 04:26:51;;;;;;;1.81;1.71;;;;;;;19.69;70.43;100680.24;;;;-51
2021/09/29 04:29:51;;;;;;;1.71;1.61;;;;;;;19.69;70.47;100685.37;;;;-51
2021/09/29 04:32:51;;;;;;;1.82;1.65;;;;;;;19.69;70.46;100690.48;;;;-51
2021/09/29 04:35:51;;;;;;;1.87;1.73;;;;;;;19.69;70.48;100693.91;;;;-51
2021/09/29 04:38:51;;;;;;;1.70;1.60;;;;;;;19.69;70.46;100696.34;;;;-51
2021/09/29 04:41:51;;;;;;;2.10;1.72;;;;;;;19.69;70.43;100694.55;;;;-51
2021/09/29 04:44:51;;;;;;;1.77;1.67;;;;;;;19.68;70.42;100690.17;;;;-51
2021/09/29 04:47:51;;;;;;;2.09;1.70;;;;;;;19.68;70.43;100692.94;;;;-51
2021/09/29 04:50:51;;;;;;;1.75;1.65;;;;;;;19.68;70.39;100697.89;;;;-51
2021/09/29 04:53:51;;;;;;;1.81;1.70;;;;;;;19.68;70.42;100696.10;;;;-51
2021/09/29 04:56:52;;;;;;;2.84;1.61;;;;;;;19.68;70.43;100693.66;;;;-51
2021/09/29 04:59:51;;;;;;;1.91;1.70;;;;;;;19.68;70.44;100691.80;;;;-51
2021/09/29 05:02:51;;;;;;;1.87;1.69;;;;;;;19.68;70.40;100692.85;;;;-50
2021/09/29 05:05:51;;;;;;;1.93;1.74;;;;;;;19.67;70.44;100697.98;;;;-51
2021/09/29 05:08:51;;;;;;;1.69;1.59;;;;;;;19.68;70.40;100698.37;;;;-51
2021/09/29 05:11:52;;;;;;;1.89;1.71;;;;;;;19.67;70.42;100703.51;;;;-51
2021/09/29 05:14:51;;;;;;;1.85;1.67;;;;;;;19.67;70.42;100703.18;;;;-51
2021/09/29 05:17:51;;;;;;;1.60;1.50;;;;;;;19.67;70.44;100703.84;;;;-51
2021/09/29 05:20:51;;;;;;;1.65;1.55;;;;;;;19.67;70.43;100711.77;;;;-51
2021/09/29 05:23:51;;;;;;;1.93;1.81;;;;;;;19.66;70.44;100708.93;;;;-50
2021/09/29 05:26:51;;;;;;;1.69;1.59;;;;;;;19.67;70.41;100706.48;;;;-51
2021/09/29 05:29:51;;;;;;;1.78;1.68;;;;;;;19.67;70.45;100710.83;;;;-51
2021/09/29 05:32:51;;;;;;;2.41;1.71;;;;;;;19.67;70.46;100712.09;;;;-51
2021/09/29 05:35:51;;;;;;;1.91;1.75;;;;;;;19.66;70.48;100711.94;;;;-51
2021/09/29 05:38:51;;;;;;;1.90;1.70;;;;;;;19.66;70.43;100713.89;;;;-51
2021/09/29 05:41:51;;;;;;;1.76;1.66;;;;;;;19.66;70.46;100713.73;;;;-51
2021/09/29 05:44:51;;;;;;;1.79;1.69;;;;;;;19.66;70.46;100711.61;;;;-57
2021/09/29 05:47:51;;;;;;;2.51;1.74;;;;;;;19.65;70.45;100715.44;;;;-51
2021/09/29 05:50:52;;;;;;;1.70;1.60;;;;;;;19.65;70.46;100710.78;;;;-47
2021/09/29 05:53:51;;;;;;;1.77;1.67;;;;;;;19.65;70.45;100711.99;;;;-51
2021/09/29 05:56:51;;;;;;;1.73;1.63;;;;;;;19.65;70.47;100710.61;;;;-51
2021/09/29 05:59:51;;;;;;;1.80;1.70;;;;;;;19.65;70.45;100711.19;;;;-51
2021/09/29 06:02:51;;;;;;;1.87;1.65;;;;;;;19.64;70.44;100708.91;;;;-50
2021/09/29 06:05:51;;;;;;;1.70;1.60;;;;;;;19.64;70.46;100704.60;;;;-58
2021/09/29 06:08:51;;;;;;;1.75;1.65;;;;;;;19.65;70.44;100706.55;;;;-51
2021/09/29 06:11:51;;;;;;;1.81;1.71;;;;;;;19.65;70.50;100723.54;;;;-51
2021/09/29 06:14:53;;;;;;;1.70;1.60;;;;;;;19.63;70.48;100719.32;;;;-56
2021/09/29 06:17:58;;;;;;;1.70;1.60;;;;;;;19.64;70.46;100725.17;;;;-57
2021/09/29 06:20:51;;;;;;;2.19;1.61;;;;;;;19.64;70.46;100728.75;;;;-57
2021/09/29 06:23:51;;;;;;;1.86;1.70;;;;;;;19.64;70.50;100728.50;;;;-57
2021/09/29 06:26:53;;;;;;;1.73;1.63;;;;;;;19.64;70.46;100730.13;;;;-57
2021/09/29 06:29:51;;;;;;;1.85;1.71;;;;;;;19.64;70.46;100734.84;;;;-47
2021/09/29 06:32:51;;;;;;;1.93;1.69;;;;;;;19.64;70.46;100731.35;;;;-47
2021/09/29 06:35:52;;;;;;;1.87;1.67;;;;;;;19.64;70.49;100731.77;;;;-56
2021/09/29 06:38:51;;;;;;;1.70;1.60;;;;;;;19.63;70.48;100733.14;;;;-47
2021/09/29 06:41:51;;;;;;;1.61;1.51;;;;;;;19.64;70.47;100733.30;;;;-51
2021/09/29 06:44:51;;;;;;;1.69;1.59;;;;;;;19.63;70.46;100729.21;;;;-51
2021/09/29 06:47:51;;;;;;;1.63;1.53;;;;;;;19.63;70.46;100731.27;;;;-51
2021/09/29 06:50:51;;;;;;;1.76;1.66;;;;;;;19.63;70.48;100732.73;;;;-51
2021/09/29 06:53:51;;;;;;;1.71;1.61;;;;;;;19.63;70.47;100732.22;;;;-51
2021/09/29 06:56:51;;;;;;;1.73;1.63;;;;;;;19.63;70.51;100735.50;;;;-57
2021/09/29 06:59:51;;;;;;;1.66;1.56;;;;;;;19.62;70.49;100737.34;;;;-51
2021/09/29 07:02:51;;;;;;;1.68;1.58;;;;;;;19.63;70.48;100733.60;;;;-51
2021/09/29 07:05:51;;;;;;;2.43;1.64;;;;;;;19.62;70.50;100731.91;;;;-51
2021/09/29 07:08:51;;;;;;;2.71;1.66;;;;;;;19.63;70.53;100730.70;;;;-56
2021/09/29 07:11:51;;;;;;;8.31;2.83;;;;;;;19.61;69.33;100730.20;;;;-58
2021/09/29 07:14:51;;;;;;;8.86;2.81;;;;;;;19.58;69.09;100738.77;;;;-55
2021/09/29 07:17:56;;;;;;;5.02;3.13;;;;;;;19.54;68.83;100741.41;;;;-52
2021/09/29 07:20:51;;;;;;;5.05;3.19;;;;;;;19.51;68.75;100737.38;;;;-52
2021/09/29 07:23:51;;;;;;;6.13;3.01;;;;;;;19.53;69.11;100741.63;;;;-52
2021/09/29 07:26:51;;;;;;;7.09;2.99;;;;;;;19.54;69.12;100738.56;;;;-59
2021/09/29 07:29:51;;;;;;;4.26;2.93;;;;;;;19.55;69.37;100739.48;;;;-58
2021/09/29 07:32:52;;;;;;;7.31;2.66;;;;;;;19.56;69.46;100740.53;;;;-51
2021/09/29 07:35:52;;;;;;;4.61;2.70;;;;;;;19.57;69.57;100740.04;;;;-51
2021/09/29 07:38:51;;;;;;;3.75;2.55;;;;;;;19.57;69.62;100736.73;;;;-57
2021/09/29 07:41:51;;;;;;;5.78;2.67;;;;;;;19.58;69.63;100737.63;;;;-58
2021/09/29 07:44:51;;;;;;;5.13;2.70;;;;;;;19.59;69.71;100736.44;;;;-59
2021/09/29 07:47:51;;;;;;;5.79;2.68;;;;;;;19.61;69.73;100737.27;;;;-59
2021/09/29 07:50:51;;;;;;;3.67;2.59;;;;;;;19.60;69.75;100737.24;;;;-58
2021/09/29 07:53:51;;;;;;;4.25;2.37;;;;;;;19.60;69.82;100733.42;;;;-59
2021/09/29 07:56:52;;;;;;;4.33;2.47;;;;;;;19.60;69.80;100731.06;;;;-59
2021/09/29 07:59:51;;;;;;;4.37;2.53;;;;;;;19.60;69.87;100736.59;;;;-59
2021/09/29 08:02:52;;;;;;;5.09;2.49;;;;;;;19.59;69.86;100731.23;;;;-52
2021/09/29 08:05:53;;;;;;;3.81;2.60;;;;;;;19.60;69.90;100735.94;;;;-51
2021/09/29 08:08:53;;;;;;;3.71;2.50;;;;;;;19.59;69.92;100737.81;;;;-52
2021/09/29 08:11:51;;;;;;;3.36;2.45;;;;;;;19.59;69.96;100733.34;;;;-52
2021/09/29 08:14:52;;;;;;;3.15;2.57;;;;;;;19.59;69.98;100731.77;;;;-52
2021/09/29 08:17:55;;;;;;;3.91;2.37;;;;;;;19.59;69.99;100733.75;;;;-52
2021/09/29 08:20:53;;;;;;;3.07;2.25;;;;;;;19.60;69.95;100731.95;;;;-52
2021/09/29 08:23:53;;;;;;;5.17;2.31;;;;;;;19.58;69.99;100725.35;;;;-51
2021/09/29 08:27:04;;;;;;;4.31;2.33;;;;;;;19.58;70.03;100721.45;;;;-52
2021/09/29 08:30:03;;;;;;;3.39;2.23;;;;;;;19.58;70.03;100724.63;;;;-51
2021/09/29 08:32:57;;;;;;;4.59;2.32;;;;;;;19.58;70.04;100720.72;;;;-52
2021/09/29 08:35:59;;;;;;;2.52;2.30;;;;;;;19.58;70.05;100724.78;;;;-51
2021/09/29 08:38:56;;;;;;;3.47;2.19;;;;;;;19.58;70.09;100735.59;;;;-52
2021/09/29 08:42:41;;;;;;;4.21;2.27;;;;;;;19.57;70.09;100733.00;;;;-51
2021/09/29 08:44:54;;;;;;;4.53;2.37;;;;;;;19.58;70.14;100733.16;;;;-52
2021/09/29 08:47:56;;;;;;;3.72;2.32;;;;;;;19.58;70.16;100735.84;;;;-52
2021/09/29 08:54:02;;;;;;;2.54;2.20;;;;;;;19.58;70.14;100740.39;;;;-52
2021/09/29 09:15:09;;;;;;;3.01;2.20;;;;;;;19.58;70.17;100744.70;;;;-59
2021/09/29 09:17:51;;;;;;;2.31;2.10;;;;;;;19.57;70.17;100744.76;;;;-59
2021/09/29 09:20:55;;;;;;;2.33;2.09;;;;;;;19.57;70.20;100740.55;;;;-60
2021/09/29 09:23:52;;;;;;;3.62;2.31;;;;;;;19.56;70.21;100738.17;;;;-60
2021/09/29 09:26:51;;;;;;;2.73;2.22;;;;;;;19.57;70.23;100741.34;;;;-60
2021/09/29 09:29:51;;;;;;;3.04;2.17;;;;;;;19.57;70.22;100742.59;;;;-59
2021/09/29 09:32:55;;;;;;;3.21;2.21;;;;;;;19.57;70.17;100737.06;;;;-58
2021/09/29 09:35:52;;;;;;;3.01;2.25;;;;;;;19.57;70.20;100739.17;;;;-60
2021/09/29 09:38:51;;;;;;;2.25;2.05;;;;;;;19.57;70.23;100738.53;;;;-52
2021/09/29 09:41:51;;;;;;;2.76;2.17;;;;;;;19.56;70.21;100735.17;;;;-52
2021/09/29 09:44:51;;;;;;;3.01;2.28;;;;;;;19.56;70.22;100735.57;;;;-51
2021/09/29 09:47:51;;;;;;;3.43;2.01;;;;;;;19.57;70.21;100734.35;;;;-51
2021/09/29 09:50:53;;;;;;;2.46;2.13;;;;;;;19.57;70.22;100732.41;;;;-52
2021/09/29 09:53:51;;;;;;;2.20;2.00;;;;;;;19.57;70.24;100727.52;;;;-52
2021/09/29 09:56:52;;;;;;;2.37;2.13;;;;;;;19.57;70.20;100732.10;;;;-51
2021/09/29 09:59:51;;;;;;;2.47;2.15;;;;;;;19.57;70.24;100720.86;;;;-51
2021/09/29 10:02:54;;;;;;;2.71;2.13;;;;;;;19.56;70.26;100721.67;;;;-51
2021/09/29 10:05:53;;;;;;;2.20;2.00;;;;;;;19.56;70.21;100718.42;;;;-51
2021/09/29 10:08:56;;;;;;;2.44;2.13;;;;;;;19.56;70.23;100713.46;;;;-52
2021/09/29 10:12:01;;;;;;;3.17;2.10;;;;;;;19.56;70.25;100708.42;;;;-51
2021/09/29 10:22:49;;;;;;;2.91;2.07;;;;;;;19.56;70.26;100700.86;;;;-52
2021/09/29 10:27:51;;;;;;;3.17;2.14;;;;;;;19.56;70.25;100697.94;;;;-52
2021/09/29 10:30:58;;;;;;;2.33;2.08;;;;;;;19.55;70.22;100693.47;;;;-59
2021/09/29 10:33:51;;;;;;;2.51;2.01;;;;;;;19.56;70.25;100685.09;;;;-59
2021/09/29 10:37:01;;;;;;;3.06;2.05;;;;;;;19.56;70.26;100687.53;;;;-59
2021/09/29 10:43:00;;;;;;;2.29;2.08;;;;;;;19.55;70.26;100676.88;;;;-60
2021/09/29 10:46:01;;;;;;;2.03;1.89;;;;;;;19.56;70.26;100671.84;;;;-52
2021/09/29 10:49:03;;;;;;;2.21;1.99;;;;;;;19.56;70.25;100671.84;;;;-51
2021/09/29 11:02:49;;;;;;;2.67;1.99;;;;;;;19.56;70.28;100670.78;;;;-51
2021/09/29 11:06:17;;;;;;;2.38;2.03;;;;;;;19.55;70.25;100658.67;;;;-52
2021/09/29 11:29:53;;;;;;;2.21;2.01;;;;;;;19.56;70.28;100659.89;;;;-59
2021/09/29 11:32:56;;;;;;;2.58;2.00;;;;;;;19.55;70.27;100662.41;;;;-59
2021/09/29 11:35:59;;;;;;;2.94;1.90;;;;;;;19.55;70.27;100660.68;;;;-58
2021/09/29 11:39:15;;;;;;;1.87;1.74;;;;;;;19.55;70.30;100673.47;;;;-58
2021/09/29 12:10:05;;;;;;;3.51;1.92;;;;;;;19.58;70.23;100680.56;;;;-57
2021/09/29 12:12:52;;;;;;;3.49;1.87;;;;;;;19.58;70.22;100680.80;;;;-57
2021/09/29 12:15:51;;;;;;;2.60;1.84;;;;;;;19.61;70.17;100687.24;;;;-57
2021/09/29 12:18:51;;;;;;;2.48;1.85;;;;;;;19.61;70.10;100685.16;;;;-54
2021/09/29 12:21:53;;;;;;;5.20;1.95;;;;;;;19.62;70.09;100684.02;;;;-61
2021/09/29 12:24:56;;;;;;;3.03;1.77;;;;;;;19.63;70.10;100682.14;;;;-54
2021/09/29 12:28:01;;;;;;;2.13;1.78;;;;;;;19.63;70.11;100678.89;;;;-57
2021/09/29 12:31:05;;;;;;;2.19;1.82;;;;;;;19.64;70.08;100672.73;;;;-57
2021/09/29 12:33:56;;;;;;;4.23;2.00;;;;;;;19.64;70.11;100671.19;;;;-54
2021/09/29 12:36:51;;;;;;;3.96;1.90;;;;;;;19.66;70.12;100681.20;;;;-52
2021/09/29 12:39:51;;;;;;;2.72;1.90;;;;;;;19.67;70.18;100692.29;;;;-51
2021/09/29 12:42:51;;;;;;;12.37;2.26;;;;;;;19.69;70.45;100741.17;;;;-50
2021/09/29 12:45:51;;;;;;;5.01;1.89;;;;;;;19.70;70.43;100775.59;;;;-56
2021/09/29 12:48:51;;;;;;;8.36;1.92;;;;;;;19.72;70.55;100758.78;;;;-60
2021/09/29 12:51:58;;;;;;;9.11;2.21;;;;;;;19.73;70.90;100755.94;;;;-58
2021/09/29 12:54:51;;;;;;;10.61;2.82;;;;;;;19.75;70.95;100758.07;;;;-53
2021/09/29 12:57:51;;;;;;;9.63;2.46;;;;;;;19.77;71.02;100759.96;;;;-59
2021/09/29 13:00:51;;;;;;;7.32;2.30;;;;;;;19.78;71.05;100754.45;;;;-51
2021/09/29 13:03:51;;;;;;;9.86;2.17;;;;;;;19.80;70.87;100741.14;;;;-51
2021/09/29 13:06:51;;;;;;;9.35;2.57;;;;;;;19.81;70.86;100746.17;;;;-50
2021/09/29 13:09:52;;;;;;;13.09;2.50;;;;;;;19.82;70.76;100761.66;;;;-50
2021/09/29 13:12:52;;;;;;;13.45;2.68;;;;;;;19.83;70.73;100761.16;;;;-50
2021/09/29 13:15:53;;;;;;;8.24;2.49;;;;;;;19.83;70.66;100770.59;;;;-60
2021/09/29 13:18:57;;;;;;;7.51;2.34;;;;;;;19.84;70.60;100770.78;;;;-51
2021/09/29 13:21:55;;;;;;;13.21;2.49;;;;;;;19.85;70.61;100776.23;;;;-52
2021/09/29 13:25:04;;;;;;;8.25;2.51;;;;;;;19.86;70.57;100789.19;;;;-61
2021/09/29 13:36:51;;;;;;;11.98;2.40;;;;;;;19.90;70.80;100816.28;;;;-55
2021/09/29 13:39:52;;;;;;;7.11;2.00;;;;;;;19.89;70.70;100816.04;;;;-55
2021/09/29 13:42:51;;;;;;;9.04;2.19;;;;;;;19.91;70.63;100818.09;;;;-59
2021/09/29 13:45:52;;;;;;;4.73;1.97;;;;;;;19.91;70.57;100820.70;;;;-57
2021/09/29 13:48:53;;;;;;;8.55;2.09;;;;;;;19.93;70.59;100832.77;;;;-59
2021/09/29 13:51:54;;;;;;;11.25;2.35;;;;;;;19.93;70.50;100827.88;;;;-60
2021/09/29 13:54:55;;;;;;;7.58;2.12;;;;;;;19.95;70.57;100824.56;;;;-51
2021/09/29 13:57:57;;;;;;;7.27;2.21;;;;;;;19.95;70.56;100825.05;;;;-52
2021/09/29 14:01:08;;;;;;;4.21;1.99;;;;;;;19.95;70.60;100827.02;;;;-52
2021/09/29 14:29:54;;;;;;;5.96;1.99;;;;;;;19.93;70.44;100841.55;;;;-60
2021/09/29 14:33:00;;;;;;;4.60;2.13;;;;;;;19.95;70.43;100845.39;;;;-60
2021/09/29 14:35:51;;;;;;;7.15;2.11;;;;;;;19.95;70.40;100852.47;;;;-50
2021/09/29 14:38:51;;;;;;;6.54;2.31;;;;;;;19.95;70.50;100859.95;;;;-56
2021/09/29 14:41:51;;;;;;;4.23;1.89;;;;;;;19.96;70.49;100857.75;;;;-56
2021/09/29 14:44:51;;;;;;;11.20;2.24;;;;;;;19.96;70.42;100845.30;;;;-56
2021/09/29 14:47:51;;;;;;;6.46;2.00;;;;;;;19.96;70.32;100852.30;;;;-56
2021/09/29 14:50:53;;;;;;;5.13;1.97;;;;;;;19.96;70.38;100866.86;;;;-55
2021/09/29 14:53:54;;;;;;;8.34;1.93;;;;;;;19.95;70.27;100864.75;;;;-55
2021/09/29 14:56:51;;;;;;;5.73;1.88;;;;;;;19.94;70.26;100867.81;;;;-55
2021/09/29 14:59:51;;;;;;;5.13;1.96;;;;;;;19.93;70.25;100866.36;;;;-55
2021/09/29 15:02:51;;;;;;;4.55;2.02;;;;;;;19.94;70.27;100868.31;;;;-56
2021/09/29 15:05:53;;;;;;;5.02;1.97;;;;;;;19.93;70.24;100870.09;;;;-56
2021/09/29 15:08:51;;;;;;;6.19;1.98;;;;;;;19.92;70.28;100876.36;;;;-55
2021/09/29 15:11:51;;;;;;;3.62;2.05;;;;;;;19.91;70.26;100881.95;;;;-55
2021/09/29 15:14:59;;;;;;;5.55;1.91;;;;;;;19.92;70.23;100885.77;;;;-55
2021/09/29 15:17:55;;;;;;;5.48;1.86;;;;;;;19.92;70.26;100884.06;;;;-57
2021/09/29 15:21:14;;;;;;;4.76;1.99;;;;;;;19.91;70.18;100884.31;;;;-56
2021/09/29 15:24:12;;;;;;;4.75;1.85;;;;;;;19.90;70.23;100891.31;;;;-58
2021/09/29 15:30:18;;;;;;;4.99;1.98;;;;;;;19.89;70.23;100894.29;;;;-58
2021/09/29 15:48:55;;;;;;;5.80;2.08;;;;;;;19.95;70.27;100902.34;;;;-58
2021/09/29 15:52:00;;;;;;;4.87;1.79;;;;;;;19.97;70.29;100912.13;;;;-57
2021/09/29 15:54:59;;;;;;;4.47;1.73;;;;;;;19.98;70.29;100917.48;;;;-63
2021/09/29 15:58:34;;;;;;;4.35;1.69;;;;;;;19.99;70.27;100915.08;;;;-55
2021/09/29 16:04:11;;;;;;;6.40;1.85;;;;;;;20.01;70.25;100930.80;;;;-54
2021/09/29 16:06:58;;;;;;;7.49;1.90;;;;;;;20.02;70.26;100935.02;;;;-52
2021/09/29 16:10:28;;;;;;;4.11;1.71;;;;;;;20.03;70.27;100935.30;;;;-51
2021/09/29 16:16:07;;;;;;;8.86;1.69;;;;;;;20.04;70.27;100940.58;;;;-50
2021/09/29 16:31:58;;;;;;;5.03;1.77;;;;;;;20.08;70.27;100962.92;;;;-57
2021/09/29 16:35:00;;;;;;;6.88;1.86;;;;;;;20.10;70.32;100964.91;;;;-51
2021/09/29 16:37:51;;;;;;;4.29;1.67;;;;;;;20.09;70.41;100964.98;;;;-56
2021/09/29 16:40:52;;;;;;;2.61;1.60;;;;;;;20.10;70.22;100967.34;;;;-52
2021/09/29 16:43:51;;;;;;;4.87;1.76;;;;;;;20.09;70.35;100978.91;;;;-52
2021/09/29 16:46:52;;;;;;;4.25;1.71;;;;;;;20.08;70.29;100980.83;;;;-51
2021/09/29 16:49:51;;;;;;;5.11;1.55;;;;;;;20.08;70.25;100992.87;;;;-52
2021/09/29 16:52:54;;;;;;;7.04;1.73;;;;;;;20.06;70.35;100996.34;;;;-54
2021/09/29 16:55:51;;;;;;;3.83;1.60;;;;;;;20.07;70.32;101004.02;;;;-51
2021/09/29 16:58:55;;;;;;;5.10;1.77;;;;;;;20.07;70.26;101001.09;;;;-51
2021/09/29 17:01:56;;;;;;;6.73;1.67;;;;;;;20.08;70.31;101008.41;;;;-55
2021/09/29 17:04:51;;;;;;;6.77;1.75;;;;;;;20.07;70.33;101008.41;;;;-55
2021/09/29 17:07:53;;;;;;;4.62;1.80;;;;;;;20.07;70.24;101014.67;;;;-56
2021/09/29 17:10:52;;;;;;;7.32;1.91;;;;;;;20.06;70.23;101017.58;;;;-55
2021/09/29 17:13:51;;;;;;;7.13;1.81;;;;;;;20.06;70.23;101017.41;;;;-60
2021/09/29 17:16:51;;;;;;;4.87;1.58;;;;;;;20.04;70.21;101026.98;;;;-60
2021/09/29 17:19:51;;;;;;;3.79;1.70;;;;;;;20.03;70.22;101033.34;;;;-60
2021/09/29 17:22:57;;;;;;;7.12;1.83;;;;;;;20.04;70.21;101046.19;;;;-60
2021/09/29 17:25:51;;;;;;;5.15;1.75;;;;;;;20.03;70.19;101051.80;;;;-60
2021/09/29 17:28:54;;;;;;;4.95;1.60;;;;;;;20.02;70.21;101054.70;;;;-60
2021/09/29 17:31:55;;;;;;;5.51;1.66;;;;;;;20.02;70.27;101075.45;;;;-61
2021/09/29 17:34:56;;;;;;;5.11;1.60;;;;;;;20.04;70.20;101074.83;;;;-52
2021/09/29 17:38:41;;;;;;;3.51;1.60;;;;;;;20.05;70.12;101076.08;;;;-54
2021/09/29 17:48:01;;;;;;;4.18;1.46;;;;;;;20.07;69.93;101082.05;;;;-54
2021/09/29 17:52:52;;;;;;;5.29;1.64;;;;;;;20.04;70.10;101101.69;;;;-59
2021/09/29 17:55:51;;;;;;;3.52;1.53;;;;;;;20.02;70.07;101100.67;;;;-59
2021/09/29 17:58:51;;;;;;;3.26;1.63;;;;;;;20.01;70.13;101111.25;;;;-54
2021/09/29 18:01:51;;;;;;;2.55;1.49;;;;;;;20.00;70.06;101112.61;;;;-54
2021/09/29 18:04:51;;;;;;;3.27;1.55;;;;;;;20.00;70.14;101118.30;;;;-60
2021/09/29 18:07:51;;;;;;;5.01;1.69;;;;;;;19.99;70.08;101122.94;;;;-59
2021/09/29 18:10:51;;;;;;;3.08;1.40;;;;;;;19.99;70.06;101135.63;;;;-59
2021/09/29 18:13:52;;;;;;;4.00;1.40;;;;;;;19.99;70.08;101143.52;;;;-55
2021/09/29 18:16:51;;;;;;;2.94;1.54;;;;;;;19.98;70.06;101142.59;;;;-54
2021/09/29 18:19:51;;;;;;;3.04;1.59;;;;;;;19.98;70.04;101146.83;;;;-54
2021/09/29 18:22:51;;;;;;;2.48;1.40;;;;;;;19.97;70.05;101151.95;;;;-59
2021/09/29 18:25:51;;;;;;;4.35;1.47;;;;;;;19.96;70.07;101150.62;;;;-59
2021/09/29 18:28:53;;;;;;;3.57;1.38;;;;;;;19.96;70.10;101159.08;;;;-53
2021/09/29 18:31:52;;;;;;;5.65;1.49;;;;;;;19.96;70.04;101168.80;;;;-53
2021/09/29 18:34:51;;;;;;;1.93;1.55;;;;;;;19.98;70.07;101174.03;;;;-50
2021/09/29 18:37:52;;;;;;;5.17;1.56;;;;;;;20.00;69.98;101177.45;;;;-54
2021/09/29 18:40:51;;;;;;;3.25;1.40;;;;;;;20.02;69.99;101185.21;;;;-59
2021/09/29 18:43:52;;;;;;;4.31;1.49;;;;;;;20.03;70.01;101194.52;;;;-59
2021/09/29 18:46:51;;;;;;;8.01;1.59;;;;;;;20.04;70.02;101195.33;;;;-57
2021/09/29 18:49:51;;;;;;;2.39;1.56;;;;;;;20.06;70.12;101198.05;;;;-62
2021/09/29 18:52:51;;;;;;;2.89;1.37;;;;;;;20.07;70.12;101205.16;;;;-51
2021/09/29 18:55:55;;;;;;;3.23;1.55;;;;;;;20.07;70.18;101208.50;;;;-63
2021/09/29 19:08:52;;;;;;;10.89;1.75;;;;;;;20.10;70.32;101233.43;;;;-57
2021/09/29 19:11:51;;;;;;;5.69;1.41;;;;;;;20.11;70.26;101235.30;;;;-60
2021/09/29 19:14:51;;;;;;;2.56;1.32;;;;;;;20.12;70.21;101231.43;;;;-56
2021/09/29 19:17:51;;;;;;;3.69;1.39;;;;;;;20.12;70.25;101236.97;;;;-51
2021/09/29 19:20:51;;;;;;;3.10;1.52;;;;;;;20.12;70.19;101241.44;;;;-58
2021/09/29 19:23:51;;;;;;;3.93;1.36;;;;;;;20.12;70.20;101247.22;;;;-51
2021/09/29 19:26:51;;;;;;;3.04;1.47;;;;;;;20.12;70.18;101250.88;;;;-51
2021/09/29 19:29:51;;;;;;;9.50;1.31;;;;;;;20.14;70.20;101251.97;;;;-53
2021/09/29 19:32:53;;;;;;;4.33;1.68;;;;;;;20.14;70.21;101255.06;;;;-50
2021/09/29 19:35:51;;;;;;;5.29;1.59;;;;;;;20.15;70.15;101258.35;;;;-48
2021/09/29 19:38:51;;;;;;;4.67;1.33;;;;;;;20.15;70.17;101256.94;;;;-48
2021/09/29 19:41:51;;;;;;;2.49;1.21;;;;;;;20.16;70.16;101257.53;;;;-52
2021/09/29 19:44:51;;;;;;;2.14;1.24;;;;;;;20.17;70.22;101262.17;;;;-58
2021/09/29 19:47:56;;;;;;;5.80;1.49;;;;;;;20.17;70.23;101267.09;;;;-60